createdAt,value
2022-12-03T00:01:49.287Z,71.20
2022-12-03T00:04:51.861Z,71.34
2022-12-03T00:07:54.399Z,71.58
2022-12-03T00:10:56.679Z,71.38
2022-12-03T00:13:58.979Z,71.14
2022-12-03T00:17:01.200Z,71.01
2022-12-03T00:20:05.206Z,71.30
2022-12-03T00:23:07.465Z,71.14
2022-12-03T00:26:09.793Z,71.10
2022-12-03T00:29:12.035Z,71.00
2022-12-03T00:32:14.299Z,70.19
2022-12-03T00:35:16.696Z,70.67
2022-12-03T00:38:18.970Z,70.24
2022-12-03T00:41:21.628Z,70.63
2022-12-03T00:44:23.907Z,70.46
2022-12-03T00:47:26.174Z,70.33
2022-12-03T00:50:28.577Z,70.54
2022-12-03T00:53:30.837Z,71.19
2022-12-03T00:56:33.124Z,71.04
2022-12-03T00:59:35.402Z,71.38
2022-12-03T01:02:37.690Z,70.58
2022-12-03T01:05:39.980Z,69.98
2022-12-03T01:08:42.232Z,70.63
2022-12-03T01:11:44.536Z,70.75
2022-12-03T01:14:46.929Z,70.73
2022-12-03T01:17:49.143Z,70.90
2022-12-03T01:20:51.404Z,71.03
2022-12-03T01:23:53.720Z,69.58
2022-12-03T01:26:56.768Z,71.11
2022-12-03T01:29:59.027Z,70.66
2022-12-03T01:33:01.296Z,70.65
2022-12-03T01:36:03.726Z,70.61
2022-12-03T01:39:06.059Z,70.49
2022-12-03T01:42:12.124Z,70.36
2022-12-03T01:45:22.373Z,70.30
2022-12-03T01:48:24.695Z,70.38
2022-12-03T01:51:27.004Z,69.68
2022-12-03T01:54:37.343Z,70.02
2022-12-03T01:57:40.485Z,69.58
2022-12-03T02:00:42.767Z,70.32
2022-12-03T02:03:46.107Z,69.87
2022-12-03T02:06:48.527Z,69.82
2022-12-03T02:09:51.209Z,69.92
2022-12-03T02:13:00.038Z,69.54
2022-12-03T02:16:03.475Z,69.81
2022-12-03T02:19:10.530Z,69.01
2022-12-03T02:22:39.257Z,69.52
2022-12-03T02:25:41.707Z,70.33
2022-12-03T02:28:44.082Z,70.13
2022-12-03T02:31:46.649Z,69.49
2022-12-03T02:34:49.877Z,70.18
2022-12-03T02:37:56.273Z,69.76
2022-12-03T02:41:04.056Z,69.78
2022-12-03T02:44:07.275Z,68.97
2022-12-03T02:47:09.726Z,68.88
2022-12-03T02:50:14.706Z,69.29
2022-12-03T02:53:20.136Z,69.67
2022-12-03T02:56:24.852Z,69.19
2022-12-03T02:59:27.200Z,69.53
2022-12-03T03:02:29.698Z,69.20
2022-12-03T03:05:33.145Z,68.81
2022-12-03T03:08:37.341Z,69.46
2022-12-03T03:11:39.767Z,69.08
2022-12-03T03:14:41.991Z,69.15
2022-12-03T03:17:44.386Z,69.60
2022-12-03T03:20:46.644Z,69.25
2022-12-03T03:23:49.394Z,69.63
2022-12-03T03:26:51.655Z,69.77
2022-12-03T03:29:54.151Z,69.42
2022-12-03T03:32:56.586Z,69.61
2022-12-03T03:36:00.544Z,69.78
2022-12-03T03:39:04.261Z,69.19
2022-12-03T03:42:06.634Z,69.71
2022-12-03T03:45:09.679Z,69.58
2022-12-03T03:48:12.908Z,70.35
2022-12-03T03:51:16.855Z,70.31
2022-12-03T03:54:19.200Z,69.74
2022-12-03T03:57:22.366Z,70.26
2022-12-03T04:00:24.820Z,69.79
2022-12-03T04:03:28.194Z,70.25
2022-12-03T04:06:30.559Z,69.95
2022-12-03T04:09:32.799Z,70.34
2022-12-03T04:12:53.551Z,69.72
2022-12-03T04:15:55.795Z,69.73
2022-12-03T04:18:58.100Z,70.17
2022-12-03T04:22:19.127Z,70.19
2022-12-03T04:25:40.007Z,69.45
2022-12-03T04:28:51.344Z,70.18
2022-12-03T04:32:12.236Z,69.66
2022-12-03T04:35:40.759Z,69.84
2022-12-03T04:38:44.485Z,71.04
2022-12-03T04:41:46.992Z,69.92
2022-12-03T04:44:50.157Z,70.42
2022-12-03T04:47:52.466Z,70.52
2022-12-03T04:50:54.689Z,71.22
2022-12-03T04:53:57.041Z,71.75
2022-12-03T04:56:59.347Z,72.03
2022-12-03T05:00:01.848Z,71.83
2022-12-03T05:03:04.235Z,71.69
2022-12-03T05:06:06.937Z,71.77
2022-12-03T05:09:09.818Z,71.48
2022-12-03T05:12:12.093Z,72.40
2022-12-03T05:15:14.355Z,71.77
2022-12-03T05:18:16.656Z,71.61
2022-12-03T05:21:18.997Z,71.63
2022-12-03T05:24:21.332Z,71.49
2022-12-03T05:27:24.308Z,71.01
2022-12-03T05:30:26.816Z,71.19
2022-12-03T05:33:29.155Z,71.28
2022-12-03T05:36:31.395Z,71.27
2022-12-03T05:39:33.750Z,70.09
2022-12-03T05:42:54.187Z,70.67
2022-12-03T05:45:56.510Z,70.47
2022-12-03T05:49:13.870Z,70.11
2022-12-03T05:52:16.122Z,69.65
2022-12-03T05:55:19.212Z,70.53
2022-12-03T05:58:21.476Z,69.73
2022-12-03T06:01:23.716Z,69.91
2022-12-03T06:04:27.425Z,70.23
2022-12-03T06:07:29.785Z,70.00
2022-12-03T06:10:32.642Z,70.27
2022-12-03T06:13:34.898Z,70.13
2022-12-03T06:16:37.193Z,69.97
2022-12-03T06:19:39.550Z,70.25
2022-12-03T06:22:42.155Z,70.17
2022-12-03T06:25:44.454Z,69.53
2022-12-03T06:28:49.165Z,69.93
2022-12-03T06:31:51.447Z,69.66
2022-12-03T06:34:53.863Z,69.61
2022-12-03T06:37:56.340Z,70.21
2022-12-03T06:40:58.657Z,69.97
2022-12-03T06:44:00.930Z,69.98
2022-12-03T06:47:03.317Z,69.94
2022-12-03T06:50:07.251Z,70.81
2022-12-03T06:53:09.659Z,70.51
2022-12-03T06:56:11.921Z,69.46
2022-12-03T06:59:14.291Z,70.11
2022-12-03T07:02:16.672Z,69.29
2022-12-03T07:05:18.925Z,68.86
2022-12-03T07:08:21.234Z,68.86
2022-12-03T07:11:32.333Z,69.00
2022-12-03T07:14:34.601Z,69.55
2022-12-03T07:17:37.207Z,68.46
2022-12-03T07:20:39.509Z,68.80
2022-12-03T07:23:41.881Z,68.45
2022-12-03T07:26:44.337Z,68.43
2022-12-03T07:29:46.823Z,68.79
2022-12-03T07:32:49.459Z,68.49
2022-12-03T07:35:51.776Z,68.86
2022-12-03T07:38:54.108Z,69.00
2022-12-03T07:41:56.379Z,69.90
2022-12-03T07:44:58.799Z,69.34
2022-12-03T07:48:01.075Z,68.46
2022-12-03T07:51:03.561Z,69.23
2022-12-03T07:54:06.105Z,68.94
2022-12-03T07:57:08.399Z,68.24
2022-12-03T08:00:11.325Z,68.55
2022-12-03T08:03:13.629Z,68.69
2022-12-03T08:06:15.951Z,67.21
2022-12-03T08:09:18.175Z,68.57
2022-12-03T08:12:25.647Z,68.39
2022-12-03T08:15:33.830Z,67.68
2022-12-03T08:18:41.171Z,67.17
2022-12-03T08:21:44.275Z,67.42
2022-12-03T08:24:46.586Z,67.05
2022-12-03T08:27:49.294Z,67.03
2022-12-03T08:31:12.639Z,65.67
2022-12-03T08:34:44.628Z,66.28
2022-12-03T08:37:46.993Z,66.90
2022-12-03T08:40:51.553Z,66.02
2022-12-03T08:43:53.860Z,65.90
2022-12-03T08:46:59.396Z,65.94
2022-12-03T08:50:25.174Z,64.24
2022-12-03T08:53:46.183Z,63.45
2022-12-03T08:56:49.019Z,63.30
2022-12-03T09:00:19.544Z,62.97
2022-12-03T09:03:21.857Z,62.84
2022-12-03T09:06:24.236Z,62.76
2022-12-03T09:09:26.771Z,63.27
2022-12-03T09:12:29.042Z,62.41
2022-12-03T09:15:31.476Z,62.22
2022-12-03T09:18:33.884Z,62.33
2022-12-03T09:21:36.269Z,61.70
2022-12-03T09:24:38.525Z,61.00
2022-12-03T09:27:40.843Z,61.60
2022-12-03T09:30:43.105Z,60.57
2022-12-03T09:33:45.396Z,61.02
2022-12-03T09:36:47.764Z,61.31
2022-12-03T09:39:50.137Z,60.72
2022-12-03T09:42:52.442Z,61.30
2022-12-03T09:45:54.814Z,60.99
2022-12-03T09:48:57.491Z,61.26
2022-12-03T09:52:02.220Z,60.99
2022-12-03T09:55:11.531Z,61.41
2022-12-03T09:58:16.672Z,60.06
2022-12-03T10:01:19.043Z,60.24
2022-12-03T10:04:21.724Z,58.52
2022-12-03T10:07:25.224Z,59.28
2022-12-03T10:10:27.654Z,59.14
2022-12-03T10:13:31.243Z,59.43
2022-12-03T10:16:36.120Z,57.96
2022-12-03T10:19:39.687Z,59.13
2022-12-03T10:22:42.074Z,57.59
2022-12-03T10:25:55.664Z,56.56
2022-12-03T10:28:57.923Z,56.26
2022-12-03T10:32:07.736Z,55.00
2022-12-03T10:35:37.909Z,54.61
2022-12-03T10:38:40.250Z,55.32
2022-12-03T10:41:44.279Z,56.27
2022-12-03T10:44:46.708Z,54.96
2022-12-03T10:48:03.197Z,55.85
2022-12-03T10:51:21.831Z,55.74
2022-12-03T10:54:25.433Z,55.91
2022-12-03T10:57:27.719Z,58.25
2022-12-03T11:00:30.011Z,56.12
2022-12-03T11:03:36.401Z,56.41
2022-12-03T11:06:38.748Z,57.28
2022-12-03T11:09:46.642Z,56.63
2022-12-03T11:13:26.898Z,56.51
2022-12-03T11:16:41.395Z,57.05
2022-12-03T11:19:46.654Z,57.40
2022-12-03T11:22:50.521Z,56.53
2022-12-03T11:25:52.791Z,56.66
2022-12-03T11:28:56.692Z,56.04
2022-12-03T11:31:59.259Z,55.84
2022-12-03T11:35:01.667Z,55.67
2022-12-03T11:38:38.221Z,55.57
2022-12-03T11:41:40.513Z,55.79
2022-12-03T11:44:43.300Z,57.01
2022-12-03T11:48:00.907Z,56.93
2022-12-03T11:51:03.365Z,57.15
2022-12-03T11:54:05.856Z,58.12
2022-12-03T11:57:30.051Z,57.80
2022-12-03T12:00:32.540Z,58.10
2022-12-03T12:03:36.067Z,57.83
2022-12-03T12:06:43.604Z,57.52
2022-12-03T12:09:55.523Z,58.72
2022-12-03T12:12:58.103Z,58.33
2022-12-03T12:16:08.894Z,58.24
2022-12-03T12:19:33.045Z,57.56
2022-12-03T12:22:35.353Z,57.55
2022-12-03T12:25:40.887Z,57.78
2022-12-03T12:28:43.291Z,57.93
2022-12-03T12:31:49.480Z,57.58
2022-12-03T12:35:00.272Z,57.54
2022-12-03T12:38:11.667Z,58.39
2022-12-03T12:41:13.936Z,58.89
2022-12-03T12:44:16.238Z,58.27
2022-12-03T12:47:18.569Z,59.44
2022-12-03T12:50:20.902Z,59.87
2022-12-03T12:53:25.086Z,59.17
2022-12-03T12:56:32.774Z,58.75
2022-12-03T12:59:34.988Z,59.68
2022-12-03T13:02:39.539Z,60.20
2022-12-03T13:05:43.939Z,60.49
2022-12-03T13:08:49.244Z,59.93
2022-12-03T13:11:56.239Z,60.10
2022-12-03T13:14:59.550Z,60.38
2022-12-03T13:18:02.626Z,59.99
2022-12-03T13:21:40.029Z,60.85
2022-12-03T13:24:50.946Z,60.98
2022-12-03T13:27:53.190Z,61.01
2022-12-03T13:30:56.041Z,61.28
2022-12-03T13:34:00.071Z,61.51
2022-12-03T13:37:03.065Z,60.79
2022-12-03T13:40:12.741Z,61.53
2022-12-03T13:43:17.003Z,61.88
2022-12-03T13:46:19.353Z,61.38
2022-12-03T13:49:23.366Z,61.53
2022-12-03T13:52:26.236Z,61.34
2022-12-03T13:55:30.321Z,62.67
2022-12-03T13:58:32.552Z,62.49
2022-12-03T14:01:36.238Z,62.45
2022-12-03T14:04:39.404Z,62.46
2022-12-03T14:07:41.800Z,62.56
2022-12-03T14:10:44.209Z,62.39
2022-12-03T14:13:46.426Z,62.71
2022-12-03T14:16:48.871Z,62.31
2022-12-03T14:19:51.367Z,62.66
2022-12-03T14:22:59.073Z,63.15
2022-12-03T14:26:02.002Z,63.11
2022-12-03T14:29:08.536Z,62.90
2022-12-03T14:32:11.294Z,62.33
2022-12-03T14:35:13.628Z,62.63
2022-12-03T14:38:16.091Z,62.80
2022-12-03T14:41:36.914Z,62.77
2022-12-03T14:44:48.454Z,63.18
2022-12-03T14:47:50.648Z,63.52
2022-12-03T14:50:53.068Z,63.25
2022-12-03T14:53:55.385Z,63.38
2022-12-03T14:56:57.668Z,62.79
2022-12-03T15:00:00.137Z,63.13
2022-12-03T15:03:02.542Z,63.67
2022-12-03T15:06:05.236Z,63.04
2022-12-03T15:09:08.027Z,63.33
2022-12-03T15:12:10.293Z,63.78
2022-12-03T15:15:12.588Z,63.53
2022-12-03T15:18:15.000Z,63.40
2022-12-03T15:21:17.280Z,63.84
2022-12-03T15:24:19.624Z,63.68
2022-12-03T15:27:21.924Z,63.71
2022-12-03T15:30:24.209Z,63.73
2022-12-03T15:33:26.517Z,64.20
2022-12-03T15:36:28.912Z,64.66
2022-12-03T15:39:33.051Z,64.31
2022-12-03T15:42:35.536Z,64.38
2022-12-03T15:45:38.150Z,64.72
2022-12-03T15:48:40.846Z,64.83
2022-12-03T15:51:43.189Z,64.34
2022-12-03T15:54:46.166Z,64.68
2022-12-03T15:57:49.302Z,64.91
2022-12-03T16:00:51.589Z,65.04
2022-12-03T16:03:53.866Z,64.82
2022-12-03T16:06:56.532Z,64.91
2022-12-03T16:09:59.187Z,64.81
2022-12-03T16:13:01.480Z,65.49
2022-12-03T16:16:04.053Z,65.03
2022-12-03T16:19:06.322Z,64.90
2022-12-03T16:22:08.856Z,65.20
2022-12-03T16:25:11.183Z,65.30
2022-12-03T16:28:13.598Z,65.51
2022-12-03T16:31:16.133Z,65.64
2022-12-03T16:34:18.535Z,65.52
2022-12-03T16:37:20.800Z,65.74
2022-12-03T16:40:23.791Z,65.18
2022-12-03T16:43:26.064Z,65.68
2022-12-03T16:46:28.461Z,65.82
2022-12-03T16:49:30.831Z,65.47
2022-12-03T16:52:33.358Z,65.55
2022-12-03T16:55:35.619Z,65.39
2022-12-03T16:58:37.986Z,64.96
2022-12-03T17:01:40.463Z,65.19
2022-12-03T17:04:42.777Z,65.42
2022-12-03T17:07:45.070Z,65.60
2022-12-03T17:10:47.802Z,65.37
2022-12-03T17:13:50.103Z,66.22
2022-12-03T17:16:52.998Z,66.10
2022-12-03T17:19:55.520Z,66.03
2022-12-03T17:22:58.589Z,66.01
2022-12-03T17:26:00.874Z,66.17
2022-12-03T17:29:03.108Z,66.46
2022-12-03T17:32:05.957Z,66.32
2022-12-03T17:35:09.177Z,66.53
2022-12-03T17:38:11.459Z,66.52
2022-12-03T17:41:13.739Z,66.40
2022-12-03T17:44:20.760Z,66.41
2022-12-03T17:47:23.552Z,66.97
2022-12-03T17:50:25.831Z,66.87
2022-12-03T17:53:28.226Z,67.19
2022-12-03T17:56:30.537Z,67.25
2022-12-03T17:59:32.795Z,66.76
2022-12-03T18:02:35.199Z,67.05
2022-12-03T18:05:37.606Z,67.17
2022-12-03T18:08:39.929Z,66.67
2022-12-03T18:11:42.213Z,66.84
2022-12-03T18:14:44.897Z,66.96
2022-12-03T18:17:47.260Z,67.51
2022-12-03T18:20:49.556Z,67.74
2022-12-03T18:23:52.416Z,68.62
2022-12-03T18:26:54.688Z,68.96
2022-12-03T18:29:57.501Z,68.85
2022-12-03T18:32:59.886Z,68.82
2022-12-03T18:36:03.481Z,68.72
2022-12-03T18:39:09.123Z,68.43
2022-12-03T18:42:19.582Z,67.71
2022-12-03T18:45:21.846Z,68.14
2022-12-03T18:48:24.955Z,67.85
2022-12-03T18:51:29.032Z,68.30
2022-12-03T18:54:31.296Z,68.21
2022-12-03T18:57:33.549Z,68.00
2022-12-03T19:00:36.422Z,67.86
2022-12-03T19:03:38.764Z,67.66
2022-12-03T19:06:41.018Z,67.74
2022-12-03T19:09:43.402Z,67.92
2022-12-03T19:12:45.636Z,68.17
2022-12-03T19:15:49.205Z,67.49
2022-12-03T19:18:53.201Z,67.37
2022-12-03T19:21:56.139Z,68.19
2022-12-03T19:24:58.420Z,67.71
2022-12-03T19:28:00.786Z,67.71
2022-12-03T19:31:05.980Z,67.45
2022-12-03T19:34:08.343Z,67.60
2022-12-03T19:37:10.573Z,68.10
2022-12-03T19:40:13.013Z,67.97
2022-12-03T19:43:15.365Z,67.29
2022-12-03T19:46:19.442Z,67.40
2022-12-03T19:49:22.390Z,67.15
2022-12-03T19:52:24.737Z,67.74
2022-12-03T19:55:27.069Z,67.69
2022-12-03T19:58:29.940Z,67.86
2022-12-03T20:01:34.541Z,67.49
2022-12-03T20:04:37.221Z,67.75
2022-12-03T20:07:39.496Z,67.30
2022-12-03T20:10:42.030Z,67.61
2022-12-03T20:13:44.610Z,67.54
2022-12-03T20:16:47.470Z,67.92
2022-12-03T20:19:49.857Z,67.55
2022-12-03T20:22:52.085Z,67.92
2022-12-03T20:25:54.783Z,68.34
2022-12-03T20:28:58.050Z,68.17
2022-12-03T20:32:01.178Z,68.41
2022-12-03T20:35:03.935Z,69.26
2022-12-03T20:38:06.256Z,68.51
2022-12-03T20:41:11.060Z,68.06
2022-12-03T20:44:14.035Z,68.09
2022-12-03T20:47:17.353Z,68.04
2022-12-03T20:50:19.592Z,68.38
2022-12-03T20:53:25.678Z,68.30
2022-12-03T20:56:31.484Z,68.16
2022-12-03T20:59:33.890Z,68.04
2022-12-03T21:02:37.631Z,68.83
2022-12-03T21:05:40.048Z,68.27
2022-12-03T21:08:43.183Z,68.62
2022-12-03T21:11:45.626Z,67.76
2022-12-03T21:14:47.894Z,68.46
2022-12-03T21:17:50.279Z,67.98
2022-12-03T21:20:52.590Z,68.36
2022-12-03T21:23:54.896Z,68.47
2022-12-03T21:26:57.257Z,68.62
2022-12-03T21:29:59.493Z,68.92
2022-12-03T21:33:01.804Z,68.30
2022-12-03T21:36:05.559Z,68.06
2022-12-03T21:39:08.282Z,68.10
2022-12-03T21:42:34.624Z,68.69
2022-12-03T21:45:32.781Z,68.33
2022-12-03T21:48:36.091Z,68.07
2022-12-03T21:51:38.402Z,68.72
2022-12-03T21:54:40.691Z,68.85
2022-12-03T21:57:42.987Z,68.94
2022-12-03T22:00:45.258Z,68.72
2022-12-03T22:03:47.957Z,68.72
2022-12-03T22:06:50.265Z,69.04
2022-12-03T22:09:52.724Z,68.83
2022-12-03T22:12:55.273Z,68.89
2022-12-03T22:15:57.612Z,69.31
2022-12-03T22:18:59.923Z,69.42
2022-12-03T22:22:02.188Z,69.58
2022-12-03T22:25:04.838Z,69.40
2022-12-03T22:28:07.161Z,69.15
2022-12-03T22:31:10.252Z,69.79
2022-12-03T22:34:12.890Z,69.19
2022-12-03T22:37:15.219Z,69.54
2022-12-03T22:40:17.533Z,69.81
2022-12-03T22:43:20.662Z,70.25
2022-12-03T22:46:23.120Z,69.45
2022-12-03T22:49:26.005Z,69.53
2022-12-03T22:52:28.275Z,69.45
2022-12-03T22:55:30.548Z,69.45
2022-12-03T22:58:32.992Z,69.82
2022-12-03T23:01:37.360Z,69.36
2022-12-03T23:04:39.641Z,69.70
2022-12-03T23:07:42.021Z,68.97
2022-12-03T23:10:46.731Z,69.34
2022-12-03T23:13:48.984Z,69.44
2022-12-03T23:16:51.295Z,69.65
2022-12-03T23:19:53.841Z,69.75
2022-12-03T23:22:56.331Z,69.02
2022-12-03T23:26:09.718Z,69.34
2022-12-03T23:29:12.003Z,69.16
2022-12-03T23:32:14.304Z,69.33
2022-12-03T23:35:16.555Z,69.37
2022-12-03T23:38:18.799Z,69.10
2022-12-03T23:41:23.223Z,69.21
2022-12-03T23:44:27.571Z,69.27
2022-12-03T23:47:29.867Z,68.96
2022-12-03T23:50:32.241Z,68.85
2022-12-03T23:53:35.678Z,69.06
2022-12-03T23:56:39.478Z,68.90
2022-12-03T23:59:42.200Z,68.33
